createdAt,value
2022-11-16T02:37:59.919Z,8.68
2022-11-16T02:41:11.441Z,8.69
2022-11-16T02:44:30.475Z,8.73
2022-11-16T02:47:35.570Z,8.80
2022-11-16T02:50:39.614Z,8.77
2022-11-16T02:53:57.967Z,8.77
2022-11-16T02:57:04.006Z,8.74
2022-11-16T03:00:10.611Z,8.68
2022-11-16T03:03:22.449Z,8.72
2022-11-16T03:06:30.026Z,8.74
2022-11-16T03:09:36.924Z,8.79
2022-11-16T03:12:41.891Z,8.77
2022-11-16T03:15:45.560Z,8.77
2022-11-16T03:18:52.637Z,8.69
2022-11-16T03:22:21.287Z,8.72
2022-11-16T03:25:27.116Z,8.75
2022-11-16T03:28:39.097Z,8.74
2022-11-16T03:31:48.982Z,8.80
2022-11-16T03:34:59.885Z,8.86
2022-11-16T03:38:06.503Z,8.76
2022-11-16T03:41:11.126Z,8.82
2022-11-16T03:44:16.345Z,8.71
2022-11-16T03:47:21.176Z,8.71
2022-11-16T03:50:24.749Z,8.74
2022-11-16T03:53:28.462Z,8.65
2022-11-16T03:56:32.049Z,8.69
2022-11-16T03:59:37.246Z,8.81
2022-11-16T04:02:40.499Z,8.80
2022-11-16T04:06:04.175Z,8.72
2022-11-16T04:09:25.456Z,8.87
2022-11-16T04:12:47.050Z,8.91
2022-11-16T04:16:08.244Z,8.81
2022-11-16T04:19:32.313Z,8.85
2022-11-16T04:23:07.386Z,8.81
2022-11-16T04:26:11.739Z,8.68
2022-11-16T04:29:15.268Z,8.73
2022-11-16T04:32:37.402Z,8.77
2022-11-16T04:35:58.936Z,8.81
2022-11-16T04:39:02.883Z,8.83
2022-11-16T04:42:20.200Z,8.81
2022-11-16T04:45:44.153Z,8.70
2022-11-16T04:48:47.672Z,8.71
2022-11-16T04:51:51.410Z,8.70
2022-11-16T04:54:53.921Z,8.86
2022-11-16T04:57:57.243Z,8.81
2022-11-16T05:01:00.393Z,8.76
2022-11-16T05:04:03.421Z,8.52
2022-11-16T05:07:11.198Z,8.51
2022-11-16T05:10:14.556Z,8.42
2022-11-16T05:13:16.879Z,8.56
2022-11-16T05:16:19.481Z,8.60
2022-11-16T05:19:40.294Z,8.57
2022-11-16T05:22:43.222Z,8.50
2022-11-16T05:25:45.439Z,8.47
2022-11-16T05:28:47.910Z,8.43
2022-11-16T05:31:50.102Z,8.37
2022-11-16T05:34:53.606Z,8.27
2022-11-16T05:37:56.118Z,8.27
2022-11-16T05:40:58.629Z,8.33
2022-11-16T05:44:00.775Z,8.39
2022-11-16T05:47:03.543Z,8.36
2022-11-16T05:50:06.607Z,8.33
2022-11-16T05:53:10.594Z,8.28
2022-11-16T05:56:15.096Z,8.38
2022-11-16T05:59:20.196Z,8.39
2022-11-16T06:02:23.350Z,8.38
2022-11-16T06:05:26.668Z,8.34
2022-11-16T06:08:30.002Z,8.31
2022-11-16T06:11:35.962Z,8.19
2022-11-16T06:14:39.358Z,8.37
2022-11-16T06:17:41.898Z,8.31
2022-11-16T06:20:44.652Z,8.32
2022-11-16T06:23:48.246Z,8.32
2022-11-16T06:26:50.480Z,8.51
2022-11-16T06:29:53.011Z,8.44
2022-11-16T06:32:55.316Z,8.46
2022-11-16T06:35:57.954Z,8.41
2022-11-16T06:39:01.767Z,8.26
2022-11-16T06:42:05.672Z,8.29
2022-11-16T06:45:10.146Z,8.55
2022-11-16T06:48:13.327Z,8.52
2022-11-16T06:51:16.464Z,8.53
2022-11-16T06:54:20.275Z,8.45
2022-11-16T06:57:23.338Z,8.37
2022-11-16T07:00:27.994Z,8.34
2022-11-16T07:03:31.832Z,8.39
2022-11-16T07:06:36.713Z,8.36
2022-11-16T07:09:41.708Z,8.47
2022-11-16T07:12:44.424Z,8.33
2022-11-16T07:15:46.934Z,8.49
2022-11-16T07:18:49.541Z,8.44
2022-11-16T07:21:52.012Z,8.45
2022-11-16T07:24:57.800Z,8.45
2022-11-16T07:28:01.021Z,8.55
2022-11-16T07:31:07.544Z,8.59
2022-11-16T07:34:09.862Z,8.63
2022-11-16T07:37:13.206Z,8.63
2022-11-16T07:40:15.939Z,8.61
2022-11-16T07:43:18.874Z,8.62
2022-11-16T07:46:45.841Z,8.60
2022-11-16T07:49:49.996Z,8.66
2022-11-16T07:52:56.295Z,8.80
2022-11-16T07:56:00.016Z,8.78
2022-11-16T07:59:02.807Z,8.79
2022-11-16T08:02:06.844Z,8.78
2022-11-16T08:05:10.813Z,8.90
2022-11-16T08:08:13.490Z,8.89
2022-11-16T08:11:16.218Z,8.86
2022-11-16T08:14:19.282Z,8.81
2022-11-16T08:17:22.914Z,8.71
2022-11-16T08:20:25.158Z,8.90
2022-11-16T08:23:29.778Z,9.03
2022-11-16T08:26:32.364Z,9.05
2022-11-16T08:29:35.262Z,9.10
2022-11-16T08:32:38.858Z,9.08
2022-11-16T09:09:07.328Z,9.39
2022-11-16T09:12:11.027Z,9.41
2022-11-16T09:15:19.627Z,9.35
2022-11-16T09:18:23.290Z,9.37
2022-11-16T09:21:31.086Z,9.50
2022-11-16T09:24:37.878Z,9.38
2022-11-16T09:27:41.766Z,9.45
2022-11-16T09:30:52.072Z,9.55
2022-11-16T09:34:09.924Z,9.51
2022-11-16T09:37:56.213Z,9.57
2022-11-16T09:42:01.736Z,9.69
2022-11-16T09:45:30.801Z,9.48
2022-11-16T09:48:44.031Z,9.48
2022-11-16T09:51:58.609Z,9.61
2022-11-16T09:55:37.728Z,9.62
2022-11-16T09:59:18.773Z,9.66
2022-11-16T10:02:40.546Z,9.69
2022-11-16T10:05:50.208Z,9.76
2022-11-16T10:08:58.709Z,9.69
2022-11-16T10:12:22.079Z,9.82
2022-11-16T10:15:42.095Z,9.76
2022-11-16T10:19:43.926Z,9.84
2022-11-16T10:23:04.799Z,9.79
2022-11-16T10:26:22.385Z,9.76
2022-11-16T10:29:36.858Z,9.79
2022-11-16T10:33:04.554Z,9.84
2022-11-16T10:36:15.483Z,9.77
2022-11-16T10:39:20.576Z,9.75
2022-11-16T10:42:44.285Z,9.82
2022-11-16T10:46:12.762Z,9.83
2022-11-16T10:49:25.349Z,9.85
2022-11-16T10:52:28.749Z,9.80
2022-11-16T10:55:31.030Z,9.79
2022-11-16T10:58:59.668Z,9.87
2022-11-16T11:02:26.535Z,9.72
2022-11-16T11:05:29.807Z,9.78
2022-11-16T11:08:36.388Z,9.62
2022-11-16T11:11:57.511Z,9.65
2022-11-16T11:15:15.538Z,9.77
2022-11-16T11:18:19.623Z,9.65
2022-11-16T11:21:27.736Z,9.66
2022-11-16T11:24:47.769Z,9.75
2022-11-16T11:27:52.500Z,9.69
2022-11-16T11:31:05.084Z,9.69
2022-11-16T11:34:24.900Z,9.65
2022-11-16T11:37:33.138Z,9.67
2022-11-16T11:40:36.252Z,9.73
2022-11-16T11:43:38.951Z,9.82
2022-11-16T11:47:42.460Z,9.89
2022-11-16T11:50:30.326Z,9.75
2022-11-16T11:53:51.600Z,9.64
2022-11-16T11:56:54.615Z,9.76
2022-11-16T11:59:56.842Z,9.62
2022-11-16T12:03:47.569Z,9.72
2022-11-16T12:07:00.023Z,9.81
2022-11-16T12:10:36.320Z,9.72
2022-11-16T12:14:01.982Z,9.72
2022-11-16T12:17:15.295Z,9.80
2022-11-16T12:20:32.401Z,9.75
2022-11-16T12:24:13.025Z,9.86
2022-11-16T12:27:18.192Z,9.86
2022-11-16T12:30:23.718Z,9.94
2022-11-16T12:33:44.328Z,9.89
2022-11-16T12:37:08.725Z,9.93
2022-11-16T12:40:40.944Z,9.89
2022-11-16T12:44:12.126Z,9.98
2022-11-16T12:47:23.395Z,9.83
2022-11-16T12:50:44.774Z,9.88
2022-11-16T12:54:03.070Z,9.84
2022-11-16T12:57:27.242Z,9.62
2022-11-16T13:00:44.376Z,9.76
2022-11-16T13:03:55.158Z,9.88
2022-11-16T13:07:10.889Z,9.92
2022-11-16T13:10:32.720Z,9.97
2022-11-16T13:13:40.470Z,9.89
2022-11-16T13:16:44.613Z,9.78
2022-11-16T13:20:14.986Z,9.75
2022-11-16T13:23:55.914Z,9.75
2022-11-16T13:27:21.713Z,9.68
2022-11-16T13:30:46.853Z,9.78
2022-11-16T13:33:55.423Z,9.84
2022-11-16T13:36:57.695Z,9.86
2022-11-16T13:40:00.026Z,9.82
2022-11-16T13:43:10.985Z,9.92
2022-11-16T13:46:27.568Z,9.97
2022-11-16T13:49:40.899Z,9.91
2022-11-16T13:53:46.225Z,9.80
2022-11-16T13:56:16.344Z,9.90
2022-11-16T13:59:26.694Z,9.93
2022-11-16T14:02:36.276Z,9.80
2022-11-16T14:05:44.860Z,9.69
2022-11-16T14:08:49.544Z,9.81
2022-11-16T14:11:51.990Z,9.69
2022-11-16T14:15:20.279Z,9.83
2022-11-16T14:18:35.317Z,9.90
2022-11-16T14:22:25.552Z,9.80
2022-11-16T14:25:50.970Z,9.88
2022-11-16T14:29:36.621Z,9.81
2022-11-16T14:32:48.962Z,9.63
2022-11-16T14:35:53.848Z,9.65
2022-11-16T14:39:16.933Z,9.69
2022-11-16T14:42:38.245Z,9.67
2022-11-16T14:46:03.514Z,9.67
2022-11-16T14:49:13.850Z,9.69
2022-11-16T14:52:19.229Z,9.69
2022-11-16T14:55:25.402Z,9.78
2022-11-16T14:58:28.843Z,9.64
2022-11-16T15:01:39.912Z,9.48
2022-11-16T15:04:43.123Z,9.37
2022-11-16T15:07:49.821Z,9.44
2022-11-16T15:10:52.881Z,9.51
2022-11-16T15:13:55.787Z,9.49
2022-11-16T15:17:00.244Z,9.47
2022-11-16T15:20:14.715Z,9.48
2022-11-16T15:23:19.785Z,9.46
2022-11-16T15:26:23.696Z,9.52
2022-11-16T15:29:26.254Z,9.37
2022-11-16T15:32:28.564Z,9.50
2022-11-16T15:35:32.779Z,9.35
2022-11-16T15:38:37.663Z,9.42
2022-11-16T15:41:40.876Z,9.48
2022-11-16T15:44:44.083Z,9.35
2022-11-16T15:47:47.489Z,9.31
2022-11-16T15:51:20.054Z,9.25
2022-11-16T15:54:52.770Z,9.40
2022-11-16T15:58:06.793Z,9.35
2022-11-16T16:01:11.992Z,9.36
2022-11-16T16:04:18.695Z,9.23
2022-11-16T16:07:41.318Z,9.31
2022-11-16T16:10:43.823Z,9.35
2022-11-16T16:13:58.633Z,9.39
2022-11-16T16:17:01.160Z,9.48
2022-11-16T16:20:06.511Z,9.50
2022-11-16T16:23:15.837Z,9.50
2022-11-16T16:26:18.498Z,9.46
2022-11-16T16:29:20.979Z,9.43
2022-11-16T16:32:34.569Z,9.54
2022-11-16T16:35:37.079Z,9.35
2022-11-16T16:38:39.994Z,9.39
2022-11-16T16:41:42.545Z,9.40
2022-11-16T16:44:46.098Z,9.40
2022-11-16T16:47:49.103Z,9.35
2022-11-16T16:50:51.422Z,9.48
2022-11-16T16:53:53.880Z,9.50
2022-11-16T16:56:57.409Z,9.52
2022-11-16T17:00:00.048Z,9.53
2022-11-16T17:03:02.314Z,9.57
2022-11-16T17:06:04.980Z,9.48
2022-11-16T17:09:07.140Z,9.27
2022-11-16T17:12:10.948Z,9.24
2022-11-16T17:15:19.060Z,9.44
2022-11-16T17:18:22.402Z,9.57
2022-11-16T17:21:24.399Z,9.55
2022-11-16T17:24:26.958Z,9.54
2022-11-16T17:27:29.075Z,9.48
2022-11-16T17:30:31.562Z,9.48
2022-11-16T17:33:35.164Z,9.41
2022-11-16T17:36:37.864Z,9.46
2022-11-16T17:39:40.261Z,9.48
2022-11-16T17:42:43.175Z,9.42
2022-11-16T17:45:45.303Z,9.51
2022-11-16T17:48:48.793Z,9.49
2022-11-16T17:51:50.973Z,9.49
2022-11-16T17:54:53.487Z,9.54
2022-11-16T17:57:56.614Z,9.52
2022-11-16T18:00:59.592Z,9.49
2022-11-16T18:04:02.560Z,9.41
2022-11-16T18:07:04.748Z,9.41
2022-11-16T18:10:08.137Z,9.46
2022-11-16T18:13:10.282Z,9.44
2022-11-16T18:16:15.762Z,9.34
2022-11-16T18:19:19.081Z,9.43
2022-11-16T18:22:21.518Z,9.31
2022-11-16T18:25:24.502Z,9.31
2022-11-16T18:28:26.999Z,9.35
2022-11-16T18:31:29.857Z,9.44
2022-11-16T18:34:32.385Z,9.44
2022-11-16T18:37:34.532Z,9.40
2022-11-16T18:40:36.982Z,9.33
2022-11-16T18:43:41.696Z,9.36
2022-11-16T18:46:44.266Z,9.18
2022-11-16T18:49:46.390Z,9.39
2022-11-16T18:52:48.945Z,9.36
2022-11-16T18:55:57.839Z,9.49
2022-11-16T18:59:00.806Z,9.27
2022-11-16T19:02:02.917Z,9.42
2022-11-16T19:05:06.080Z,9.42
2022-11-16T19:08:08.260Z,9.46
2022-11-16T19:11:16.826Z,9.38
2022-11-16T19:14:19.032Z,9.42
2022-11-16T19:17:24.493Z,9.54
2022-11-16T19:20:26.779Z,9.41
2022-11-16T19:23:29.211Z,9.40
2022-11-16T19:26:31.444Z,9.49
2022-11-16T19:29:34.337Z,9.53
2022-11-16T19:32:36.444Z,9.52
2022-11-16T19:35:38.849Z,9.64
2022-11-16T19:38:41.753Z,9.51
2022-11-16T19:41:44.174Z,9.43
2022-11-16T19:44:46.308Z,9.35
2022-11-16T19:47:49.439Z,9.34
2022-11-16T19:50:51.659Z,9.36
2022-11-16T19:53:54.746Z,9.39
2022-11-16T19:56:56.947Z,9.33
2022-11-16T19:59:59.516Z,9.25
2022-11-16T20:03:01.661Z,9.20
2022-11-16T20:06:15.457Z,9.28
2022-11-16T20:09:17.641Z,9.30
2022-11-16T20:12:20.072Z,9.39
2022-11-16T20:15:25.280Z,9.33
2022-11-16T20:18:30.114Z,9.34
2022-11-16T20:21:35.193Z,9.43
2022-11-16T20:24:37.643Z,9.49
2022-11-16T20:27:39.748Z,9.46
2022-11-16T20:30:46.740Z,9.49
2022-11-16T20:34:03.860Z,9.50
2022-11-16T20:37:07.428Z,9.52
2022-11-16T20:40:10.243Z,9.33
2022-11-16T20:43:14.375Z,9.18
2022-11-16T20:46:17.638Z,9.25
2022-11-16T20:49:20.530Z,9.23
2022-11-16T20:52:22.691Z,9.30
2022-11-16T20:55:25.207Z,9.30
2022-11-16T20:58:27.340Z,9.32
2022-11-16T21:01:31.947Z,9.31
2022-11-16T21:04:34.341Z,9.28
2022-11-16T21:07:38.030Z,9.27
2022-11-16T21:10:40.367Z,9.06
2022-11-16T21:14:03.373Z,9.04
2022-11-16T21:17:05.529Z,9.15
2022-11-16T21:23:32.653Z,9.22
2022-11-16T21:26:35.490Z,9.19
2022-11-16T21:29:37.633Z,9.23
2022-11-16T21:32:40.111Z,9.23
2022-11-16T21:35:42.266Z,9.44
2022-11-16T21:38:45.540Z,9.33
2022-11-16T21:41:47.687Z,9.29
2022-11-16T21:44:50.133Z,9.30
2022-11-16T21:47:52.251Z,9.25
2022-11-16T21:51:02.425Z,9.27
2022-11-16T21:54:04.734Z,9.25
2022-11-16T21:57:07.204Z,9.22
2022-11-16T22:00:10.115Z,9.26
2022-11-16T22:03:13.562Z,9.26
2022-11-16T22:06:34.878Z,9.29
2022-11-16T22:09:37.371Z,9.20
2022-11-16T22:12:39.814Z,9.21
2022-11-16T22:15:41.945Z,9.28
2022-11-16T22:18:44.400Z,9.12
2022-11-16T22:21:46.535Z,9.16
2022-11-16T22:24:49.150Z,9.09
2022-11-16T22:28:19.029Z,9.12
2022-11-16T22:31:14.775Z,9.09
2022-11-16T22:34:16.971Z,9.18
2022-11-16T22:37:19.449Z,9.11
2022-11-16T22:40:21.662Z,9.07
2022-11-16T22:43:26.876Z,9.08
2022-11-16T22:46:29.077Z,9.08
2022-11-16T22:49:31.556Z,9.09
2022-11-16T22:52:33.750Z,9.08
2022-11-16T22:55:38.009Z,9.00
2022-11-16T22:58:40.210Z,9.08
2022-11-16T23:01:42.721Z,9.05
2022-11-16T23:04:44.870Z,9.07
2022-11-16T23:07:47.300Z,9.21
2022-11-16T23:11:08.088Z,9.06
2022-11-16T23:14:31.677Z,8.94
2022-11-16T23:17:33.859Z,9.03
2022-11-16T23:20:54.943Z,9.14
2022-11-16T23:24:26.005Z,9.08
2022-11-16T23:27:34.221Z,9.00
2022-11-16T23:30:36.730Z,8.70
2022-11-16T23:33:45.275Z,8.77
2022-11-16T23:36:47.439Z,8.67
2022-11-16T23:39:49.957Z,8.62
2022-11-16T23:43:12.502Z,8.80
2022-11-16T23:46:14.933Z,8.87
2022-11-16T23:49:17.114Z,8.89
2022-11-16T23:52:19.617Z,8.94
2022-11-16T23:55:23.096Z,8.95
2022-11-16T23:58:25.564Z,8.91
